createdAt,value
2022-11-21T00:00:42.236Z,12.35
2022-11-21T00:03:09.449Z,11.27
2022-11-21T00:05:39.316Z,12.02
2022-11-21T00:08:05.649Z,5.88
2022-11-21T00:10:32.342Z,5.72
2022-11-21T00:12:58.661Z,4.80
2022-11-21T00:15:25.789Z,7.32
2022-11-21T00:17:52.438Z,8.67
2022-11-21T00:20:19.569Z,7.35
2022-11-21T00:22:46.323Z,7.77
2022-11-21T00:25:13.101Z,8.85
2022-11-21T00:27:39.574Z,8.93
2022-11-21T00:30:07.111Z,5.90
2022-11-21T00:32:33.485Z,6.10
2022-11-21T00:34:59.800Z,6.90
2022-11-21T00:37:26.198Z,8.95
2022-11-21T00:39:52.546Z,11.65
2022-11-21T00:42:18.937Z,7.72
2022-11-21T00:44:45.276Z,9.65
2022-11-21T00:47:11.605Z,7.97
2022-11-21T00:49:37.910Z,8.07
2022-11-21T00:52:04.368Z,8.35
2022-11-21T00:54:30.760Z,13.35
2022-11-21T00:56:57.079Z,9.43
2022-11-21T00:59:23.440Z,10.10
2022-11-21T01:01:49.789Z,6.97
2022-11-21T01:04:16.129Z,8.18
2022-11-21T01:06:42.507Z,5.25
2022-11-21T01:09:08.962Z,4.50
2022-11-21T01:11:35.285Z,6.30
2022-11-21T01:14:01.824Z,7.07
2022-11-21T01:16:28.631Z,8.90
2022-11-21T01:18:55.359Z,9.80
2022-11-21T01:21:22.888Z,6.03
2022-11-21T01:23:49.691Z,5.88
2022-11-21T01:26:17.581Z,4.60
2022-11-21T01:28:44.163Z,5.28
2022-11-21T01:31:11.957Z,6.20
2022-11-21T01:33:38.758Z,5.35
2022-11-21T01:36:13.443Z,5.55
2022-11-21T01:38:40.948Z,5.18
2022-11-21T01:41:07.920Z,5.50
2022-11-21T01:43:34.395Z,5.50
2022-11-21T01:46:05.438Z,5.32
2022-11-21T01:48:34.609Z,6.47
2022-11-21T01:51:24.214Z,6.13
2022-11-21T01:53:53.045Z,5.40
2022-11-21T01:56:19.784Z,4.90
2022-11-21T01:58:46.800Z,6.10
2022-11-21T02:01:13.434Z,5.93
2022-11-21T02:03:41.111Z,5.53
2022-11-21T02:06:09.289Z,5.32
2022-11-21T02:08:36.661Z,4.85
2022-11-21T02:11:09.368Z,4.40
2022-11-21T02:13:35.703Z,4.95
2022-11-21T02:16:02.328Z,4.30
2022-11-21T02:18:28.640Z,4.25
2022-11-21T02:21:00.446Z,4.43
2022-11-21T02:23:30.867Z,4.78
2022-11-21T02:25:57.236Z,4.72
2022-11-21T02:28:24.564Z,4.55
2022-11-21T02:30:50.882Z,3.78
2022-11-21T02:33:17.276Z,4.82
2022-11-21T02:35:43.833Z,4.00
2022-11-21T02:38:16.172Z,4.75
2022-11-21T02:40:44.136Z,4.80
2022-11-21T02:45:39.104Z,4.90
2022-11-21T02:48:05.915Z,4.68
2022-11-21T02:50:33.195Z,4.07
2022-11-21T02:52:59.544Z,5.03
2022-11-21T02:55:26.407Z,4.25
2022-11-21T02:57:53.040Z,4.80
2022-11-21T03:00:19.712Z,5.90
2022-11-21T03:02:46.386Z,6.55
2022-11-21T03:05:14.472Z,7.45
2022-11-21T03:10:07.273Z,5.70
2022-11-21T03:12:36.049Z,6.82
2022-11-21T03:15:02.524Z,6.18
2022-11-21T03:17:28.867Z,6.60
2022-11-21T03:19:55.203Z,5.13
2022-11-21T03:22:21.573Z,5.28
2022-11-21T03:24:47.886Z,5.00
2022-11-21T03:27:14.192Z,5.25
2022-11-21T03:29:40.586Z,4.85
2022-11-21T03:32:06.981Z,5.45
2022-11-21T03:34:33.494Z,5.65
2022-11-21T03:36:59.831Z,5.45
2022-11-21T03:39:26.170Z,4.88
2022-11-21T03:41:52.529Z,3.95
2022-11-21T03:44:18.891Z,4.10
2022-11-21T03:46:46.312Z,3.38
2022-11-21T03:49:13.807Z,4.22
2022-11-21T03:51:40.433Z,4.05
2022-11-21T03:54:07.344Z,2.92
2022-11-21T03:56:34.251Z,4.10
2022-11-21T03:59:00.805Z,4.28
2022-11-21T04:01:29.382Z,3.95
2022-11-21T04:03:58.876Z,3.83
2022-11-21T04:06:25.550Z,4.45
2022-11-21T04:08:52.239Z,5.43
2022-11-21T04:11:19.029Z,6.07
2022-11-21T04:13:45.424Z,6.00
2022-11-21T04:16:11.747Z,6.72
2022-11-21T04:18:38.145Z,14.93
2022-11-21T04:21:05.624Z,10.90
2022-11-21T04:23:31.941Z,5.22
2022-11-21T04:25:58.293Z,3.97
2022-11-21T04:28:24.656Z,4.07
2022-11-21T04:30:54.558Z,3.78
2022-11-21T04:33:21.450Z,3.42
2022-11-21T04:35:47.775Z,3.60
2022-11-21T04:38:14.351Z,2.95
2022-11-21T04:40:40.753Z,3.13
2022-11-21T04:43:08.201Z,2.95
2022-11-21T04:45:34.590Z,2.80
2022-11-21T04:48:00.948Z,3.08
2022-11-21T04:50:27.248Z,3.70
2022-11-21T04:52:54.718Z,3.80
2022-11-21T04:55:21.808Z,3.30
2022-11-21T04:57:48.480Z,2.63
2022-11-21T05:00:19.609Z,3.80
2022-11-21T05:02:49.046Z,3.25
2022-11-21T05:05:15.457Z,3.45
2022-11-21T05:07:42.043Z,3.72
2022-11-21T05:10:09.074Z,3.63
2022-11-21T05:13:07.654Z,4.15
2022-11-21T05:15:34.004Z,3.17
2022-11-21T05:18:00.471Z,2.50
2022-11-21T05:20:26.849Z,3.78
2022-11-21T05:22:53.302Z,4.38
2022-11-21T05:25:19.701Z,3.03
2022-11-21T05:27:46.152Z,3.10
2022-11-21T05:30:13.461Z,3.60
2022-11-21T05:32:40.029Z,3.08
2022-11-21T05:35:08.052Z,3.10
2022-11-21T05:40:01.224Z,3.33
2022-11-21T05:42:46.347Z,3.05
2022-11-21T05:45:12.682Z,3.63
2022-11-21T05:47:41.183Z,4.15
2022-11-21T05:50:07.755Z,3.83
2022-11-21T05:52:34.114Z,4.13
2022-11-21T05:55:00.472Z,3.72
2022-11-21T05:57:26.780Z,3.50
2022-11-21T05:59:53.193Z,4.35
2022-11-21T06:02:38.338Z,3.25
2022-11-21T06:05:04.888Z,3.60
2022-11-21T06:07:31.237Z,3.78
2022-11-21T06:09:57.610Z,3.40
2022-11-21T06:12:25.568Z,3.17
2022-11-21T06:14:52.433Z,3.22
2022-11-21T06:17:19.275Z,3.47
2022-11-21T06:19:45.788Z,3.85
2022-11-21T06:22:12.138Z,3.35
2022-11-21T06:24:38.473Z,3.47
2022-11-21T06:27:04.781Z,3.30
2022-11-21T06:29:31.139Z,3.50
2022-11-21T06:31:57.466Z,4.00
2022-11-21T06:34:26.052Z,4.00
2022-11-21T06:36:52.699Z,4.57
2022-11-21T06:39:19.055Z,4.25
2022-11-21T06:41:51.018Z,3.95
2022-11-21T06:44:20.658Z,3.67
2022-11-21T06:46:50.999Z,3.63
2022-11-21T06:49:18.540Z,3.42
2022-11-21T06:51:44.903Z,3.67
2022-11-21T06:54:16.352Z,3.50
2022-11-21T06:56:43.631Z,3.25
2022-11-21T06:59:10.294Z,3.90
2022-11-21T07:01:36.707Z,4.10
2022-11-21T07:04:03.217Z,6.13
2022-11-21T07:06:29.562Z,4.35
2022-11-21T07:09:32.191Z,3.63
2022-11-21T07:11:42.555Z,4.00
2022-11-21T07:14:09.590Z,3.72
2022-11-21T07:16:36.141Z,3.67
2022-11-21T07:19:02.545Z,4.32
2022-11-21T07:21:28.941Z,3.72
2022-11-21T07:23:55.378Z,4.03
2022-11-21T07:26:21.770Z,3.95
2022-11-21T07:28:48.278Z,4.10
2022-11-21T07:31:14.699Z,5.00
2022-11-21T07:33:43.182Z,3.30
2022-11-21T07:36:09.752Z,3.67
2022-11-21T07:38:36.076Z,3.88
2022-11-21T07:41:02.448Z,3.58
2022-11-21T07:43:29.273Z,3.92
2022-11-21T07:45:56.194Z,4.13
2022-11-21T07:48:22.558Z,3.80
2022-11-21T07:50:48.893Z,3.72
2022-11-21T07:53:15.305Z,3.75
2022-11-21T07:55:42.545Z,4.20
2022-11-21T07:58:11.105Z,4.85
2022-11-21T08:00:38.872Z,3.75
2022-11-21T08:03:06.959Z,4.78
2022-11-21T08:05:36.787Z,5.95
2022-11-21T08:08:03.178Z,4.97
2022-11-21T08:10:29.572Z,4.55
2022-11-21T08:12:56.125Z,4.95
2022-11-21T08:15:22.497Z,4.45
2022-11-21T08:17:49.034Z,4.63
2022-11-21T08:20:15.498Z,5.38
2022-11-21T08:22:41.997Z,4.68
2022-11-21T08:25:08.828Z,5.45
2022-11-21T08:27:35.855Z,4.90
2022-11-21T08:30:02.169Z,4.80
2022-11-21T08:32:28.550Z,4.82
2022-11-21T08:34:55.193Z,4.50
2022-11-21T08:37:21.510Z,4.00
2022-11-21T08:39:47.876Z,4.15
2022-11-21T08:42:14.292Z,3.90
2022-11-21T08:44:40.629Z,4.00
2022-11-21T08:47:07.000Z,3.75
2022-11-21T08:49:33.438Z,4.57
2022-11-21T08:52:00.094Z,4.78
2022-11-21T08:54:27.126Z,4.07
2022-11-21T08:56:53.729Z,4.13
2022-11-21T08:59:20.192Z,4.57
2022-11-21T09:01:46.691Z,4.68
2022-11-21T09:04:13.225Z,3.38
2022-11-21T09:06:40.023Z,3.80
2022-11-21T09:09:06.843Z,3.78
2022-11-21T09:11:33.192Z,2.90
2022-11-21T09:14:18.330Z,2.72
2022-11-21T09:17:14.693Z,3.80
2022-11-21T09:19:41.094Z,4.07
2022-11-21T09:22:07.520Z,2.90
2022-11-21T09:24:33.893Z,3.42
2022-11-21T09:27:00.266Z,3.35
2022-11-21T09:29:26.853Z,2.65
2022-11-21T09:31:53.421Z,3.30
2022-11-21T09:34:20.298Z,2.88
2022-11-21T09:36:47.020Z,2.85
2022-11-21T09:39:13.385Z,2.47
2022-11-21T09:41:52.366Z,2.78
2022-11-21T09:44:21.827Z,2.88
2022-11-21T09:46:49.139Z,2.75
2022-11-21T09:49:16.097Z,3.03
2022-11-21T09:51:44.073Z,3.00
2022-11-21T09:56:38.929Z,3.03
2022-11-21T09:59:08.461Z,2.63
2022-11-21T10:01:34.877Z,2.60
2022-11-21T10:04:02.210Z,2.60
2022-11-21T10:06:29.732Z,2.47
2022-11-21T10:09:14.575Z,3.85
2022-11-21T10:12:12.288Z,2.70
2022-11-21T10:14:57.228Z,2.45
2022-11-21T10:17:43.631Z,3.15
2022-11-21T10:20:27.871Z,2.60
2022-11-21T10:22:54.702Z,2.30
2022-11-21T10:25:27.201Z,2.50
2022-11-21T10:27:57.199Z,2.10
2022-11-21T10:30:23.861Z,2.42
2022-11-21T10:32:54.712Z,1.92
2022-11-21T10:35:23.009Z,1.60
2022-11-21T10:38:03.229Z,1.80
2022-11-21T10:40:40.826Z,2.00
2022-11-21T10:43:55.212Z,1.30
2022-11-21T10:46:21.686Z,1.63
2022-11-21T10:48:55.418Z,2.00
2022-11-21T10:51:27.516Z,1.77
2022-11-21T10:54:22.921Z,1.60
2022-11-21T10:56:49.813Z,2.20
2022-11-21T10:59:27.114Z,1.17
2022-11-21T11:01:57.855Z,1.70
2022-11-21T11:04:29.655Z,1.50
2022-11-21T11:07:00.089Z,1.75
2022-11-21T11:09:29.686Z,1.55
2022-11-21T11:12:19.247Z,1.00
2022-11-21T11:14:50.182Z,1.48
2022-11-21T11:17:16.793Z,1.35
2022-11-21T11:19:59.746Z,1.50
2022-11-21T11:22:30.274Z,1.35
2022-11-21T11:25:00.420Z,1.60
2022-11-21T11:27:28.468Z,1.58
2022-11-21T11:29:54.838Z,1.38
2022-11-21T11:32:22.263Z,1.20
2022-11-21T11:35:00.151Z,1.30
2022-11-21T11:37:38.680Z,1.25
2022-11-21T11:40:19.645Z,1.30
2022-11-21T11:43:05.134Z,1.38
2022-11-21T11:46:05.695Z,0.90
2022-11-21T11:48:56.251Z,1.42
2022-11-21T11:51:25.139Z,1.70
2022-11-21T11:53:57.249Z,1.70
2022-11-21T11:56:29.633Z,1.00
2022-11-21T11:59:00.584Z,1.02
2022-11-21T12:01:33.802Z,1.25
2022-11-21T12:04:04.619Z,0.80
2022-11-21T12:07:10.665Z,0.95
2022-11-21T12:09:22.926Z,1.38
2022-11-21T12:12:07.624Z,1.00
2022-11-21T12:15:02.777Z,1.20
2022-11-21T12:17:38.704Z,0.90
2022-11-21T12:20:12.102Z,1.00
2022-11-21T12:22:38.473Z,0.60
2022-11-21T12:25:10.846Z,4.07
2022-11-21T12:27:40.427Z,0.40
2022-11-21T12:30:14.686Z,0.40
2022-11-21T12:32:49.288Z,0.60
2022-11-21T12:35:27.667Z,0.40
2022-11-21T12:38:29.659Z,0.43
2022-11-21T12:41:31.206Z,0.70
2022-11-21T12:44:07.714Z,0.30
2022-11-21T12:46:38.153Z,0.30
2022-11-21T12:49:40.124Z,0.77
2022-11-21T12:52:33.170Z,0.65
2022-11-21T12:55:19.674Z,0.40
2022-11-21T12:57:58.561Z,0.50
2022-11-21T13:00:46.572Z,0.20
2022-11-21T13:03:21.286Z,0.80
2022-11-21T13:05:50.297Z,0.88
2022-11-21T13:08:24.374Z,0.98
2022-11-21T13:10:51.389Z,1.48
2022-11-21T13:13:28.901Z,0.40
2022-11-21T13:16:10.072Z,1.10
2022-11-21T13:18:41.892Z,1.45
2022-11-21T13:21:28.195Z,1.30
2022-11-21T13:23:54.688Z,1.42
2022-11-21T13:26:30.114Z,1.50
2022-11-21T13:29:13.357Z,1.80
2022-11-21T13:31:41.009Z,2.30
2022-11-21T13:34:26.297Z,1.25
2022-11-21T13:36:52.865Z,1.60
2022-11-21T13:39:27.891Z,1.42
2022-11-21T13:42:20.986Z,1.00
2022-11-21T13:44:47.567Z,1.83
2022-11-21T13:47:26.185Z,0.82
2022-11-21T13:50:11.445Z,0.90
2022-11-21T13:52:43.857Z,1.00
2022-11-21T13:55:29.287Z,0.43
2022-11-21T13:57:58.774Z,0.85
2022-11-21T14:00:48.419Z,1.33
2022-11-21T14:03:20.750Z,0.47
2022-11-21T14:05:50.216Z,0.60
2022-11-21T14:08:19.004Z,0.50
2022-11-21T14:10:46.930Z,0.55
2022-11-21T14:13:30.086Z,0.52
2022-11-21T14:16:08.804Z,0.82
2022-11-21T14:18:35.675Z,0.57
2022-11-21T14:21:03.664Z,0.40
2022-11-21T14:26:02.068Z,0.47
2022-11-21T14:28:33.113Z,0.30
2022-11-21T14:31:00.753Z,0.50
2022-11-21T14:33:34.560Z,0.70
2022-11-21T14:36:07.419Z,1.05
2022-11-21T14:39:13.890Z,0.43
2022-11-21T14:41:40.460Z,0.98
2022-11-21T14:44:14.503Z,1.20
2022-11-21T14:46:42.119Z,1.50
2022-11-21T14:49:17.383Z,1.58
2022-11-21T14:51:59.852Z,2.10
2022-11-21T14:54:28.297Z,2.05
2022-11-21T14:57:00.133Z,2.28
2022-11-21T14:59:43.265Z,1.30
2022-11-21T15:02:21.029Z,1.30
2022-11-21T15:07:18.810Z,1.20
2022-11-21T15:10:30.525Z,1.80
2022-11-21T15:12:40.413Z,2.20
2022-11-21T15:15:47.227Z,2.03
2022-11-21T15:18:27.330Z,2.58
2022-11-21T15:20:59.135Z,2.75
2022-11-21T15:23:30.557Z,1.63
2022-11-21T15:26:00.941Z,2.33
2022-11-21T15:28:28.649Z,2.70
2022-11-21T15:31:13.985Z,2.70
2022-11-21T15:36:45.201Z,2.40
2022-11-21T15:39:19.210Z,3.10
2022-11-21T15:41:46.072Z,2.40
2022-11-21T15:44:13.291Z,3.42
2022-11-21T15:46:42.422Z,2.72
2022-11-21T15:49:31.349Z,3.03
2022-11-21T15:54:33.566Z,4.57
2022-11-21T15:56:59.948Z,6.28
2022-11-21T15:59:26.711Z,6.00
2022-11-21T16:01:53.271Z,3.70
2022-11-21T16:04:25.045Z,7.22
2022-11-21T16:06:52.136Z,6.25
2022-11-21T16:09:18.459Z,12.02
2022-11-21T16:11:44.820Z,5.32
2022-11-21T16:14:15.559Z,3.47
2022-11-21T16:16:43.644Z,4.82
2022-11-21T16:19:13.917Z,3.72
2022-11-21T16:21:40.506Z,3.40
2022-11-21T16:24:06.882Z,5.20
2022-11-21T16:26:33.548Z,3.13
2022-11-21T16:29:01.042Z,3.67
2022-11-21T16:31:28.513Z,7.38
2022-11-21T16:33:55.364Z,6.00
2022-11-21T16:36:32.027Z,8.43
2022-11-21T16:39:05.254Z,6.47
2022-11-21T16:41:35.041Z,5.47
2022-11-21T16:44:01.396Z,4.57
2022-11-21T16:46:27.793Z,6.13
2022-11-21T16:48:58.831Z,8.95
2022-11-21T16:51:25.173Z,22.35
2022-11-21T16:53:52.000Z,9.60
2022-11-21T16:56:18.849Z,4.85
2022-11-21T16:58:45.204Z,6.38
2022-11-21T17:01:12.801Z,5.78
2022-11-21T17:03:40.212Z,10.70
2022-11-21T17:06:06.564Z,11.38
2022-11-21T17:08:32.964Z,14.10
2022-11-21T17:10:59.436Z,9.75
2022-11-21T17:13:26.759Z,13.80
2022-11-21T17:15:53.243Z,14.82
2022-11-21T17:18:19.859Z,17.70
2022-11-21T17:20:46.224Z,8.90
2022-11-21T17:23:12.635Z,10.00
2022-11-21T17:25:39.006Z,15.07
2022-11-21T17:28:05.453Z,8.00
2022-11-21T17:30:32.725Z,11.40
2022-11-21T17:32:59.178Z,26.13
2022-11-21T17:35:25.550Z,9.75
2022-11-21T17:37:51.913Z,4.97
2022-11-21T17:40:18.255Z,8.48
2022-11-21T17:42:44.637Z,5.50
2022-11-21T17:45:11.897Z,15.82
2022-11-21T17:47:38.351Z,9.52
2022-11-21T17:50:06.424Z,10.32
2022-11-21T17:52:33.216Z,12.07
2022-11-21T17:54:59.627Z,9.98
2022-11-21T17:57:27.942Z,11.10
2022-11-21T17:59:54.292Z,5.85
2022-11-21T18:02:21.778Z,7.00
2022-11-21T18:04:48.999Z,6.22
2022-11-21T18:07:15.432Z,7.83
2022-11-21T18:09:41.903Z,7.70
2022-11-21T18:12:08.282Z,10.20
2022-11-21T18:14:35.310Z,15.02
2022-11-21T18:17:01.877Z,6.65
2022-11-21T18:19:28.253Z,8.75
2022-11-21T18:21:54.592Z,7.18
2022-11-21T18:24:21.271Z,6.40
2022-11-21T18:26:47.714Z,5.70
2022-11-21T18:32:00.760Z,7.22
2022-11-21T18:34:27.071Z,5.85
2022-11-21T18:36:54.339Z,5.38
2022-11-21T18:39:23.011Z,5.20
2022-11-21T18:41:50.357Z,4.85
2022-11-21T18:44:21.609Z,5.45
2022-11-21T18:46:48.488Z,5.32
2022-11-21T18:49:14.802Z,5.70
2022-11-21T18:51:41.176Z,5.47
2022-11-21T18:54:08.596Z,10.65
2022-11-21T18:56:36.043Z,10.77
2022-11-21T18:59:03.425Z,5.45
2022-11-21T19:01:30.048Z,6.30
2022-11-21T19:03:56.710Z,3.75
2022-11-21T19:06:24.417Z,5.80
2022-11-21T19:08:53.132Z,7.60
2022-11-21T19:11:20.439Z,3.17
2022-11-21T19:13:47.616Z,3.83
2022-11-21T19:16:15.245Z,3.40
2022-11-21T19:18:44.377Z,3.75
2022-11-21T19:21:13.695Z,4.35
2022-11-21T19:23:40.996Z,3.60
2022-11-21T19:26:14.725Z,3.30
2022-11-21T19:28:41.729Z,2.55
2022-11-21T19:31:08.417Z,2.42
2022-11-21T19:33:35.487Z,2.97
2022-11-21T19:36:06.640Z,3.20
2022-11-21T19:38:33.408Z,3.42
2022-11-21T19:41:19.786Z,3.10
2022-11-21T19:43:47.242Z,2.75
2022-11-21T19:46:14.608Z,2.97
2022-11-21T19:48:41.276Z,2.97
2022-11-21T19:51:08.138Z,4.85
2022-11-21T19:53:36.245Z,2.90
2022-11-21T19:56:19.310Z,2.30
2022-11-21T19:58:46.230Z,2.55
2022-11-21T20:01:14.465Z,2.58
2022-11-21T20:03:42.153Z,2.78
2022-11-21T20:06:17.246Z,3.50
2022-11-21T20:08:44.043Z,24.38
2022-11-21T20:11:12.616Z,7.88
2022-11-21T20:13:39.709Z,8.13
2022-11-21T20:16:08.592Z,4.23
2022-11-21T20:18:35.961Z,8.73
2022-11-21T20:21:09.137Z,7.40
2022-11-21T20:23:35.673Z,10.10
2022-11-21T20:26:02.200Z,6.50
2022-11-21T20:28:28.674Z,8.93
2022-11-21T20:30:55.014Z,9.55
2022-11-21T20:33:21.338Z,4.53
2022-11-21T20:35:47.686Z,3.88
2022-11-21T20:38:14.089Z,4.05
2022-11-21T20:40:42.107Z,3.10
2022-11-21T20:43:10.421Z,3.13
2022-11-21T20:46:08.056Z,3.15
2022-11-21T20:48:23.527Z,2.80
2022-11-21T20:52:31.209Z,2.97
2022-11-21T20:53:51.365Z,2.10
2022-11-21T20:56:18.756Z,2.20
2022-11-21T20:58:45.554Z,2.22
2022-11-21T21:01:12.469Z,2.45
2022-11-21T21:03:39.412Z,2.88
2022-11-21T21:06:07.416Z,2.72
2022-11-21T21:11:06.159Z,2.28
2022-11-21T21:13:33.219Z,3.28
2022-11-21T21:16:06.452Z,2.92
2022-11-21T21:18:33.536Z,5.95
2022-11-21T21:21:16.525Z,3.23
2022-11-21T21:23:45.281Z,8.35
2022-11-21T21:26:15.802Z,2.70
2022-11-21T21:28:42.304Z,2.85
2022-11-21T21:31:09.359Z,3.20
2022-11-21T21:33:35.778Z,2.50
2022-11-21T21:36:09.561Z,2.55
2022-11-21T21:38:36.807Z,2.80
2022-11-21T21:41:07.062Z,3.03
2022-11-21T21:43:33.744Z,5.03
2022-11-21T21:46:10.857Z,2.72
2022-11-21T21:48:37.912Z,2.10
2022-11-21T21:51:05.060Z,1.40
2022-11-21T21:53:32.240Z,1.37
2022-11-21T21:55:59.679Z,1.30
2022-11-21T21:58:26.392Z,1.75
2022-11-21T22:00:52.714Z,1.85
2022-11-21T22:03:19.051Z,1.90
2022-11-21T22:05:45.377Z,1.80
2022-11-21T22:08:11.701Z,1.48
2022-11-21T22:10:38.049Z,1.45
2022-11-21T22:13:04.454Z,1.75
2022-11-21T22:15:30.871Z,1.65
2022-11-21T22:17:57.237Z,1.50
2022-11-21T22:20:23.566Z,1.80
2022-11-21T22:22:49.886Z,1.85
2022-11-21T22:25:16.332Z,1.63
2022-11-21T22:27:42.669Z,1.40
2022-11-21T22:30:10.699Z,1.30
2022-11-21T22:35:03.366Z,1.80
2022-11-21T22:37:29.748Z,1.13
2022-11-21T22:39:56.100Z,1.40
2022-11-21T22:42:22.410Z,0.90
2022-11-21T22:44:48.858Z,1.23
2022-11-21T22:47:15.245Z,1.88
2022-11-21T22:49:41.629Z,1.75
2022-11-21T22:52:08.057Z,1.25
2022-11-21T22:54:34.454Z,1.50
2022-11-21T22:57:00.793Z,1.45
2022-11-21T22:59:27.160Z,0.98
2022-11-21T23:01:53.533Z,1.55
2022-11-21T23:04:19.847Z,1.20
2022-11-21T23:06:46.247Z,1.77
2022-11-21T23:09:12.580Z,1.77
2022-11-21T23:11:40.992Z,1.73
2022-11-21T23:14:07.868Z,1.50
2022-11-21T23:16:34.311Z,1.48
2022-11-21T23:19:00.658Z,1.20
2022-11-21T23:21:26.990Z,1.45
2022-11-21T23:23:53.398Z,1.40
2022-11-21T23:26:20.385Z,1.52
2022-11-21T23:28:46.778Z,2.08
2022-11-21T23:31:13.484Z,1.25
2022-11-21T23:33:39.898Z,1.75
2022-11-21T23:36:06.402Z,1.83
2022-11-21T23:38:32.809Z,2.20
2022-11-21T23:40:59.143Z,2.03
2022-11-21T23:43:25.478Z,1.55
2022-11-21T23:45:52.484Z,1.60
2022-11-21T23:48:19.270Z,2.33
2022-11-21T23:50:46.995Z,1.83
2022-11-21T23:53:13.534Z,1.42
2022-11-21T23:55:39.994Z,1.67
2022-11-21T23:58:06.394Z,1.65
